Time,TemperatureF,DewpointF,PressureIn,WindDirection,WindDirectionDegrees,WindSpeedMPH,WindSpeedGustMPH,Humidity,HourlyPrecipIn,Conditions,Clouds,dailyrainin,SolarRadiationWatts/m^2,SoftwareType,DateUTC
2013-04-26 00:00:00,51.0,47.5,29.81,WSW,243,2.2,5.1,87,0.00,,,-99.99,1.0,HOBO +U30 +Weather +,2013-04-26 07:00:00,
2013-04-26 00:05:00,51.1,47.6,29.81,SW,232,2.2,5.6,87,0.00,,,-99.99,1.0,HOBO +U30 +Weather +,2013-04-26 07:05:00,
2013-04-26 00:10:00,50.9,47.4,29.81,West,263,2.9,6.7,87,0.00,,,-99.99,1.0,HOBO +U30 +Weather +,2013-04-26 07:10:00,
2013-04-26 00:15:00,51.0,47.6,29.81,SW,225,2.9,7.8,88,0.00,,,-99.99,1.0,HOBO +U30 +Weather +,2013-04-26 07:15:00,
2013-04-26 00:20:00,51.0,47.6,29.81,SW,236,3.4,6.7,88,0.00,,,-99.99,1.0,HOBO +U30 +Weather +,2013-04-26 07:20:00,
2013-04-26 00:25:00,51.1,47.8,29.81,SW,223,4.0,7.8,88,0.00,,,-99.99,1.0,HOBO +U30 +Weather +,2013-04-26 07:25:00,
2013-04-26 00:30:00,51.0,47.7,29.82,WSW,239,1.1,6.7,88,0.00,,,-99.99,1.0,HOBO +U30 +Weather +,2013-04-26 07:30:00,
2013-04-26 00:35:00,51.0,47.8,29.82,SW,232,2.2,6.3,88,0.00,,,-99.99,1.0,HOBO +U30 +Weather +,2013-04-26 07:35:00,
2013-04-26 00:40:00,51.0,47.7,29.81,WSW,237,2.9,7.4,88,0.00,,,-99.99,1.0,HOBO +U30 +Weather +,2013-04-26 07:40:00,
2013-04-26 00:45:00,50.9,47.7,29.82,SW,230,3.4,7.4,88,0.00,,,-99.99,1.0,HOBO +U30 +Weather +,2013-04-26 07:45:00,
2013-04-26 00:50:00,50.8,47.7,29.82,SW,227,2.9,6.3,88,0.00,,,-99.99,1.0,HOBO +U30 +Weather +,2013-04-26 07:50:00,
2013-04-26 00:55:00,50.7,47.6,29.82,SW,229,2.9,6.7,89,0.00,,,-99.99,1.0,HOBO +U30 +Weather +,2013-04-26 07:55:00,
2013-04-26 01:00:00,50.6,47.6,29.81,SW,223,3.4,6.7,89,0.00,,,-99.99,1.0,HOBO +U30 +Weather +,2013-04-26 08:00:00,
2013-04-26 01:05:00,50.6,47.7,29.81,SW,223,5.1,10.1,89,0.00,,,-99.99,1.0,HOBO +U30 +Weather +,2013-04-26 08:05:00,
2013-04-26 01:10:00,50.6,47.7,29.81,SW,225,4.5,10.1,89,0.00,,,-99.99,1.0,HOBO +U30 +Weather +,2013-04-26 08:10:00,
2013-04-26 01:15:00,50.6,47.7,29.81,SW,223,5.1,8.9,89,0.00,,,-99.99,1.0,HOBO +U30 +Weather +,2013-04-26 08:15:00,
2013-04-26 01:20:00,50.5,47.7,29.81,SW,222,4.0,8.5,89,0.00,,,-99.99,1.0,HOBO +U30 +Weather +,2013-04-26 08:20:00,
2013-04-26 01:25:00,50.5,47.7,29.81,SW,227,4.5,8.9,90,0.00,,,-99.99,1.0,HOBO +U30 +Weather +,2013-04-26 08:25:00,
2013-04-26 01:30:00,50.3,47.6,29.81,SW,226,4.0,8.9,90,0.00,,,-99.99,1.0,HOBO +U30 +Weather +,2013-04-26 08:30:00,
2013-04-26 01:35:00,50.2,47.7,29.81,SW,227,4.0,7.8,90,0.00,,,-99.99,1.0,HOBO +U30 +Weather +,2013-04-26 08:35:00,
2013-04-26 01:40:00,50.1,47.7,29.81,SW,229,4.0,7.8,91,0.00,,,-99.99,1.0,HOBO +U30 +Weather +,2013-04-26 08:40:00,
2013-04-26 01:45:00,50.1,47.7,29.80,SW,227,3.4,6.7,91,0.00,,,-99.99,1.0,HOBO +U30 +Weather +,2013-04-26 08:45:00,
2013-04-26 01:50:00,50.1,47.8,29.80,SW,230,4.0,7.8,91,0.00,,,-99.99,1.0,HOBO +U30 +Weather +,2013-04-26 08:50:00,
2013-04-26 01:55:00,50.0,47.7,29.81,SW,220,3.4,6.3,91,0.00,,,-99.99,1.0,HOBO +U30 +Weather +,2013-04-26 08:55:00,
2013-04-26 02:00:00,49.8,47.6,29.81,SW,234,1.8,5.1,92,0.00,,,-99.99,1.0,HOBO +U30 +Weather +,2013-04-26 09:00:00,
2013-04-26 02:05:00,49.9,47.8,29.81,SW,230,2.9,5.6,92,0.00,,,-99.99,1.0,HOBO +U30 +Weather +,2013-04-26 09:05:00,
2013-04-26 02:10:00,49.9,47.8,29.81,SW,227,2.2,4.5,92,0.00,,,-99.99,1.0,HOBO +U30 +Weather +,2013-04-26 09:10:00,
2013-04-26 02:15:00,50.0,47.9,29.81,SW,229,2.9,7.4,92,0.00,,,-99.99,1.0,HOBO +U30 +Weather +,2013-04-26 09:15:00,
2013-04-26 02:20:00,50.1,48.0,29.81,SW,229,1.8,5.6,92,0.00,,,-99.99,1.0,HOBO +U30 +Weather +,2013-04-26 09:20:00,
2013-04-26 02:25:00,50.3,48.1,29.81,SW,225,2.2,6.7,91,0.00,,,-99.99,1.0,HOBO +U30 +Weather +,2013-04-26 09:25:00,
2013-04-26 02:30:00,50.5,48.1,29.81,WSW,237,3.4,7.4,91,0.00,,,-99.99,1.0,HOBO +U30 +Weather +,2013-04-26 09:30:00,
2013-04-26 02:35:00,50.5,48.0,29.81,WSW,248,2.2,6.7,91,0.00,,,-99.99,1.0,HOBO +U30 +Weather +,2013-04-26 09:35:00,
2013-04-26 02:40:00,50.5,48.0,29.81,SW,234,2.2,6.7,91,0.00,,,-99.99,1.0,HOBO +U30 +Weather +,2013-04-26 09:40:00,
2013-04-26 02:45:00,50.6,48.1,29.80,SW,234,3.4,9.6,91,0.00,,,-99.99,1.0,HOBO +U30 +Weather +,2013-04-26 09:45:00,
2013-04-26 02:50:00,50.6,48.2,29.81,WSW,241,4.0,8.5,91,0.00,,,-99.99,1.0,HOBO +U30 +Weather +,2013-04-26 09:50:00,
2013-04-26 02:55:00,50.5,48.1,29.80,WSW,243,3.4,8.5,91,0.00,,,-99.99,1.0,HOBO +U30 +Weather +,2013-04-26 09:55:00,
2013-04-26 03:00:00,50.5,48.1,29.81,WSW,247,4.0,10.1,91,0.00,,,-99.99,1.0,HOBO +U30 +Weather +,2013-04-26 10:00:00,
2013-04-26 03:05:00,50.5,48.1,29.81,WSW,247,4.0,10.1,91,0.00,,,-99.99,1.0,HOBO +U30 +Weather +,2013-04-26 10:05:00,
2013-04-26 03:10:00,50.6,48.2,29.81,WSW,251,2.9,6.7,91,0.00,,,-99.99,1.0,HOBO +U30 +Weather +,2013-04-26 10:10:00,
2013-04-26 03:15:00,50.6,48.2,29.81,WSW,237,3.4,7.8,91,0.00,,,-99.99,1.0,HOBO +U30 +Weather +,2013-04-26 10:15:00,
2013-04-26 03:20:00,50.5,48.1,29.82,WSW,243,2.9,7.4,91,0.00,,,-99.99,1.0,HOBO +U30 +Weather +,2013-04-26 10:20:00,
2013-04-26 03:25:00,50.5,48.0,29.82,SW,230,2.9,8.5,91,0.00,,,-99.99,1.0,HOBO +U30 +Weather +,2013-04-26 10:25:00,
2013-04-26 03:30:00,50.6,48.1,29.82,WSW,244,2.9,6.7,91,0.00,,,-99.99,1.0,HOBO +U30 +Weather +,2013-04-26 10:30:00,
2013-04-26 03:35:00,50.5,48.1,29.82,SW,227,2.9,7.8,91,0.00,,,-99.99,1.0,HOBO +U30 +Weather +,2013-04-26 10:35:00,
2013-04-26 03:40:00,50.5,48.1,29.82,WSW,243,2.9,6.7,91,0.00,,,-99.99,1.0,HOBO +U30 +Weather +,2013-04-26 10:40:00,
2013-04-26 03:45:00,50.5,48.1,29.82,WSW,239,3.4,8.5,91,0.00,,,-99.99,1.0,HOBO +U30 +Weather +,2013-04-26 10:45:00,
2013-04-26 03:50:00,50.4,48.0,29.82,WSW,257,2.9,7.8,91,0.00,,,-99.99,1.0,HOBO +U30 +Weather +,2013-04-26 10:50:00,
2013-04-26 03:55:00,50.5,48.1,29.82,SW,229,1.8,6.7,91,0.00,,,-99.99,1.0,HOBO +U30 +Weather +,2013-04-26 10:55:00,
2013-04-26 04:00:00,50.5,48.0,29.82,WSW,240,4.0,8.9,91,0.00,,,-99.99,1.0,HOBO +U30 +Weather +,2013-04-26 11:00:00,
2013-04-26 04:05:00,50.5,48.1,29.82,WSW,253,1.1,5.6,91,0.00,,,-99.99,1.0,HOBO +U30 +Weather +,2013-04-26 11:05:00,
2013-04-26 04:10:00,50.4,48.0,29.82,SW,236,4.5,10.7,91,0.00,,,-99.99,1.0,HOBO +U30 +Weather +,2013-04-26 11:10:00,
2013-04-26 04:15:00,50.5,48.1,29.83,SW,227,1.1,5.1,91,0.00,,,-99.99,1.0,HOBO +U30 +Weather +,2013-04-26 11:15:00,
2013-04-26 04:20:00,50.4,48.0,29.82,WSW,243,2.2,6.7,91,0.00,,,-99.99,1.0,HOBO +U30 +Weather +,2013-04-26 11:20:00,
2013-04-26 04:25:00,50.3,47.9,29.82,WSW,246,2.2,8.5,91,0.00,,,-99.99,1.0,HOBO +U30 +Weather +,2013-04-26 11:25:00,
2013-04-26 04:30:00,50.2,47.9,29.82,SW,229,2.9,7.4,91,0.00,,,-99.99,1.0,HOBO +U30 +Weather +,2013-04-26 11:30:00,
2013-04-26 04:35:00,50.2,47.9,29.82,SW,232,4.0,8.9,91,0.00,,,-99.99,1.0,HOBO +U30 +Weather +,2013-04-26 11:35:00,
2013-04-26 04:40:00,50.2,47.9,29.83,SW,234,2.2,7.4,91,0.00,,,-99.99,1.0,HOBO +U30 +Weather +,2013-04-26 11:40:00,
2013-04-26 04:45:00,50.2,47.8,29.83,West,260,1.8,7.8,91,0.00,,,-99.99,1.0,HOBO +U30 +Weather +,2013-04-26 11:45:00,
2013-04-26 04:50:00,50.0,47.6,29.83,WSW,247,2.9,6.7,91,0.00,,,-99.99,1.0,HOBO +U30 +Weather +,2013-04-26 11:50:00,
2013-04-26 04:55:00,50.0,47.6,29.83,SW,233,3.4,8.5,91,0.00,,,-99.99,1.0,HOBO +U30 +Weather +,2013-04-26 11:55:00,
2013-04-26 05:00:00,50.1,47.7,29.83,SW,233,1.8,5.1,91,0.00,,,-99.99,1.0,HOBO +U30 +Weather +,2013-04-26 12:00:00,
2013-04-26 05:05:00,50.1,47.7,29.83,WSW,243,1.8,7.8,91,0.00,,,-99.99,1.0,HOBO +U30 +Weather +,2013-04-26 12:05:00,
2013-04-26 05:10:00,50.0,47.6,29.83,SW,230,2.9,6.3,91,0.00,,,-99.99,1.0,HOBO +U30 +Weather +,2013-04-26 12:10:00,
2013-04-26 05:15:00,50.0,47.7,29.83,WSW,246,2.9,8.9,91,0.00,,,-99.99,1.0,HOBO +U30 +Weather +,2013-04-26 12:15:00,
2013-04-26 05:20:00,49.9,47.6,29.83,SW,236,2.9,7.4,91,0.00,,,-99.99,1.0,HOBO +U30 +Weather +,2013-04-26 12:20:00,
2013-04-26 05:25:00,49.8,47.6,29.83,SW,232,2.2,6.3,92,0.00,,,-99.99,1.0,HOBO +U30 +Weather +,2013-04-26 12:25:00,
2013-04-26 05:30:00,49.7,47.5,29.83,SW,229,3.4,7.8,91,0.00,,,-99.99,1.0,HOBO +U30 +Weather +,2013-04-26 12:30:00,
2013-04-26 05:35:00,49.7,47.5,29.83,SW,227,2.2,5.6,91,0.00,,,-99.99,1.0,HOBO +U30 +Weather +,2013-04-26 12:35:00,
2013-04-26 05:40:00,49.6,47.4,29.83,SW,233,2.9,7.4,92,0.00,,,-99.99,1.0,HOBO +U30 +Weather +,2013-04-26 12:40:00,
2013-04-26 05:45:00,49.6,47.5,29.83,WSW,256,2.2,6.7,92,0.00,,,-99.99,1.0,HOBO +U30 +Weather +,2013-04-26 12:45:00,
2013-04-26 05:50:00,49.5,47.3,29.83,SW,232,4.0,7.8,92,0.00,,,-99.99,1.0,HOBO +U30 +Weather +,2013-04-26 12:50:00,
2013-04-26 05:55:00,49.6,47.4,29.83,SW,234,4.0,8.5,92,0.00,,,-99.99,1.0,HOBO +U30 +Weather +,2013-04-26 12:55:00,
2013-04-26 06:00:00,49.5,47.4,29.84,WSW,254,1.8,5.6,92,0.00,,,-99.99,1.0,HOBO +U30 +Weather +,2013-04-26 13:00:00,
2013-04-26 06:05:00,49.4,47.2,29.84,West,265,2.9,7.4,92,0.00,,,-99.99,1.0,HOBO +U30 +Weather +,2013-04-26 13:05:00,
2013-04-26 06:10:00,49.3,47.1,29.84,SW,234,2.9,6.3,92,0.00,,,-99.99,1.0,HOBO +U30 +Weather +,2013-04-26 13:10:00,
2013-04-26 06:15:00,49.5,47.3,29.84,SW,236,1.1,4.5,92,0.00,,,-99.99,1.0,HOBO +U30 +Weather +,2013-04-26 13:15:00,
2013-04-26 06:20:00,49.5,47.2,29.84,SW,234,1.8,6.3,91,0.00,,,-99.99,3.0,HOBO +U30 +Weather +,2013-04-26 13:20:00,
2013-04-26 06:25:00,49.4,47.2,29.84,SW,234,2.2,5.6,91,0.00,,,-99.99,4.0,HOBO +U30 +Weather +,2013-04-26 13:25:00,
2013-04-26 06:30:00,49.4,47.2,29.84,SW,230,2.2,6.3,91,0.00,,,-99.99,7.0,HOBO +U30 +Weather +,2013-04-26 13:30:00,
2013-04-26 06:35:00,49.4,47.2,29.84,WSW,246,2.2,5.1,92,0.00,,,-99.99,9.0,HOBO +U30 +Weather +,2013-04-26 13:35:00,
2013-04-26 06:40:00,49.4,47.2,29.85,SW,230,4.0,8.5,91,0.00,,,-99.99,13.0,HOBO +U30 +Weather +,2013-04-26 13:40:00,
2013-04-26 06:45:00,49.5,47.2,29.85,SW,234,2.2,6.7,91,0.00,,,-99.99,17.0,HOBO +U30 +Weather +,2013-04-26 13:45:00,
2013-04-26 06:50:00,49.3,47.0,29.85,West,270,2.9,6.3,91,0.00,,,-99.99,23.0,HOBO +U30 +Weather +,2013-04-26 13:50:00,
2013-04-26 06:55:00,49.6,47.2,29.85,WSW,254,0.7,4.0,91,0.00,,,-99.99,27.0,HOBO +U30 +Weather +,2013-04-26 13:55:00,
2013-04-26 07:00:00,49.8,47.4,29.85,West,274,0.7,3.4,91,0.00,,,-99.99,29.0,HOBO +U30 +Weather +,2013-04-26 14:00:00,
2013-04-26 07:05:00,49.7,47.2,29.86,West,263,2.2,7.4,91,0.00,,,-99.99,32.0,HOBO +U30 +Weather +,2013-04-26 14:05:00,
2013-04-26 07:10:00,49.8,47.4,29.86,West,260,1.1,5.1,91,0.00,,,-99.99,33.0,HOBO +U30 +Weather +,2013-04-26 14:10:00,
2013-04-26 07:15:00,49.8,47.4,29.86,West,277,0.7,4.0,91,0.00,,,-99.99,34.0,HOBO +U30 +Weather +,2013-04-26 14:15:00,
2013-04-26 07:20:00,49.8,47.4,29.86,SW,232,2.2,5.6,91,0.00,,,-99.99,37.0,HOBO +U30 +Weather +,2013-04-26 14:20:00,
2013-04-26 07:25:00,49.6,47.2,29.87,WSW,247,2.9,6.3,91,0.00,,,-99.99,46.0,HOBO +U30 +Weather +,2013-04-26 14:25:00,
2013-04-26 07:30:00,49.5,47.1,29.87,West,260,2.2,6.3,91,0.00,,,-99.99,54.0,HOBO +U30 +Weather +,2013-04-26 14:30:00,
2013-04-26 07:35:00,49.6,47.2,29.87,West,268,2.2,5.6,91,0.00,,,-99.99,53.0,HOBO +U30 +Weather +,2013-04-26 14:35:00,
2013-04-26 07:40:00,49.8,47.3,29.88,WSW,243,2.9,7.8,91,0.00,,,-99.99,57.0,HOBO +U30 +Weather +,2013-04-26 14:40:00,
2013-04-26 07:45:00,49.8,47.1,29.88,SW,229,4.0,7.8,90,0.00,,,-99.99,61.0,HOBO +U30 +Weather +,2013-04-26 14:45:00,
2013-04-26 07:50:00,49.8,47.1,29.88,SW,234,2.2,6.3,90,0.00,,,-99.99,69.0,HOBO +U30 +Weather +,2013-04-26 14:50:00,
2013-04-26 07:55:00,49.9,47.2,29.88,SW,232,2.2,5.6,90,0.00,,,-99.99,69.0,HOBO +U30 +Weather +,2013-04-26 14:55:00,
2013-04-26 08:00:00,49.9,47.2,29.88,WSW,237,1.1,5.6,90,0.00,,,-99.99,71.0,HOBO +U30 +Weather +,2013-04-26 15:00:00,
2013-04-26 08:05:00,50.3,47.6,29.88,SW,232,1.1,3.4,90,0.00,,,-99.99,71.0,HOBO +U30 +Weather +,2013-04-26 15:05:00,
2013-04-26 08:10:00,50.2,47.5,29.89,WSW,253,1.1,3.4,90,0.00,,,-99.99,79.0,HOBO +U30 +Weather +,2013-04-26 15:10:00,
2013-04-26 08:15:00,50.1,47.4,29.89,SW,223,2.2,6.3,90,0.00,,,-99.99,77.0,HOBO +U30 +Weather +,2013-04-26 15:15:00,
2013-04-26 08:20:00,49.8,47.2,29.89,SW,233,2.2,6.7,90,0.00,,,-99.99,82.0,HOBO +U30 +Weather +,2013-04-26 15:20:00,
2013-04-26 08:25:00,49.9,47.4,29.89,WSW,239,2.2,5.6,91,0.00,,,-99.99,96.0,HOBO +U30 +Weather +,2013-04-26 15:25:00,
2013-04-26 08:30:00,50.0,47.5,29.89,SW,226,2.9,6.7,90,0.00,,,-99.99,108.0,HOBO +U30 +Weather +,2013-04-26 15:30:00,
2013-04-26 08:35:00,49.8,47.1,29.89,WSW,244,2.2,6.7,90,0.00,,,-99.99,114.0,HOBO +U30 +Weather +,2013-04-26 15:35:00,
2013-04-26 08:40:00,50.0,47.3,29.90,WSW,243,1.8,7.4,90,0.00,,,-99.99,114.0,HOBO +U30 +Weather +,2013-04-26 15:40:00,
2013-04-26 08:45:00,49.7,47.2,29.89,WSW,256,2.9,6.7,90,0.00,,,-99.99,111.0,HOBO +U30 +Weather +,2013-04-26 15:45:00,
2013-04-26 08:50:00,50.1,47.6,29.90,SW,232,2.9,7.4,91,0.00,,,-99.99,124.0,HOBO +U30 +Weather +,2013-04-26 15:50:00,
2013-04-26 08:55:00,50.0,47.6,29.90,SW,227,5.1,7.8,91,0.00,,,-99.99,129.0,HOBO +U30 +Weather +,2013-04-26 15:55:00,
2013-04-26 09:00:00,50.1,47.6,29.90,SW,225,4.0,7.4,91,0.00,,,-99.99,149.0,HOBO +U30 +Weather +,2013-04-26 16:00:00,
2013-04-26 09:05:00,50.4,47.8,29.90,WSW,237,2.9,6.7,90,0.00,,,-99.99,151.0,HOBO +U30 +Weather +,2013-04-26 16:05:00,
2013-04-26 09:10:00,50.5,47.9,29.90,SW,236,3.4,8.5,90,0.00,,,-99.99,157.0,HOBO +U30 +Weather +,2013-04-26 16:10:00,
2013-04-26 09:15:00,50.6,47.9,29.90,SW,234,2.2,5.6,90,0.00,,,-99.99,176.0,HOBO +U30 +Weather +,2013-04-26 16:15:00,
2013-04-26 09:20:00,50.6,47.7,29.90,SW,222,4.5,8.5,89,0.00,,,-99.99,193.0,HOBO +U30 +Weather +,2013-04-26 16:20:00,
2013-04-26 09:25:00,50.7,47.8,29.90,WSW,239,2.2,5.6,89,0.00,,,-99.99,241.0,HOBO +U30 +Weather +,2013-04-26 16:25:00,
2013-04-26 09:30:00,51.2,48.3,29.90,SW,236,2.2,6.3,89,0.00,,,-99.99,256.0,HOBO +U30 +Weather +,2013-04-26 16:30:00,
2013-04-26 09:35:00,51.0,47.8,29.90,WSW,253,3.4,6.3,88,0.00,,,-99.99,246.0,HOBO +U30 +Weather +,2013-04-26 16:35:00,
2013-04-26 09:40:00,51.8,48.6,29.90,SW,234,1.8,7.8,88,0.00,,,-99.99,266.0,HOBO +U30 +Weather +,2013-04-26 16:40:00,
2013-04-26 09:45:00,52.3,48.9,29.91,WSW,258,2.2,6.3,88,0.00,,,-99.99,256.0,HOBO +U30 +Weather +,2013-04-26 16:45:00,
2013-04-26 09:50:00,51.6,48.1,29.91,WSW,253,2.2,6.3,87,0.00,,,-99.99,252.0,HOBO +U30 +Weather +,2013-04-26 16:50:00,
2013-04-26 09:55:00,51.7,48.4,29.91,SW,234,2.9,6.3,88,0.00,,,-99.99,264.0,HOBO +U30 +Weather +,2013-04-26 16:55:00,
2013-04-26 10:00:00,51.2,47.8,29.91,SW,230,4.5,8.9,87,0.00,,,-99.99,268.0,HOBO +U30 +Weather +,2013-04-26 17:00:00,
2013-04-26 10:05:00,51.4,48.1,29.91,SW,223,4.0,8.5,88,0.00,,,-99.99,306.0,HOBO +U30 +Weather +,2013-04-26 17:05:00,
2013-04-26 10:10:00,52.5,49.0,29.91,SW,215,2.2,8.5,87,0.00,,,-99.99,306.0,HOBO +U30 +Weather +,2013-04-26 17:10:00,
2013-04-26 10:15:00,52.3,48.3,29.91,SW,223,4.0,7.8,85,0.00,,,-99.99,307.0,HOBO +U30 +Weather +,2013-04-26 17:15:00,
2013-04-26 10:20:00,52.5,48.3,29.91,WSW,239,4.0,8.9,85,0.00,,,-99.99,328.0,HOBO +U30 +Weather +,2013-04-26 17:20:00,
2013-04-26 10:25:00,51.4,47.2,29.91,SW,233,5.6,10.7,85,0.00,,,-99.99,403.0,HOBO +U30 +Weather +,2013-04-26 17:25:00,
2013-04-26 10:30:00,53.6,49.6,29.91,SW,227,4.0,10.7,86,0.00,,,-99.99,424.0,HOBO +U30 +Weather +,2013-04-26 17:30:00,
2013-04-26 10:35:00,52.8,48.3,29.91,SW,234,5.1,8.9,84,0.00,,,-99.99,421.0,HOBO +U30 +Weather +,2013-04-26 17:35:00,
2013-04-26 10:40:00,52.6,48.3,29.91,SW,225,5.6,10.1,84,0.00,,,-99.99,393.0,HOBO +U30 +Weather +,2013-04-26 17:40:00,
2013-04-26 10:45:00,53.2,48.7,29.91,WSW,244,3.4,8.9,84,0.00,,,-99.99,422.0,HOBO +U30 +Weather +,2013-04-26 17:45:00,
2013-04-26 10:50:00,52.8,48.3,29.91,SW,220,6.7,10.1,84,0.00,,,-99.99,432.0,HOBO +U30 +Weather +,2013-04-26 17:50:00,
2013-04-26 10:55:00,52.9,48.3,29.91,SW,219,6.3,9.6,84,0.00,,,-99.99,591.0,HOBO +U30 +Weather +,2013-04-26 17:55:00,
2013-04-26 11:00:00,53.0,48.1,29.91,SW,236,6.3,14.5,83,0.00,,,-99.99,429.0,HOBO +U30 +Weather +,2013-04-26 18:00:00,
2013-04-26 11:05:00,53.4,48.8,29.92,SW,229,7.4,12.3,84,0.00,,,-99.99,543.0,HOBO +U30 +Weather +,2013-04-26 18:05:00,
2013-04-26 11:10:00,53.3,48.5,29.92,SW,222,8.5,13.4,83,0.00,,,-99.99,571.0,HOBO +U30 +Weather +,2013-04-26 18:10:00,
2013-04-26 11:15:00,54.8,49.4,29.91,SW,230,6.3,14.1,81,0.00,,,-99.99,456.0,HOBO +U30 +Weather +,2013-04-26 18:15:00,
2013-04-26 11:20:00,53.8,48.4,29.92,SW,222,7.8,13.0,81,0.00,,,-99.99,749.0,HOBO +U30 +Weather +,2013-04-26 18:20:00,
2013-04-26 11:25:00,53.7,48.3,29.92,SW,233,6.7,12.3,81,0.00,,,-99.99,467.0,HOBO +U30 +Weather +,2013-04-26 18:25:00,
2013-04-26 11:30:00,54.2,49.0,29.91,SW,227,7.4,12.3,82,0.00,,,-99.99,512.0,HOBO +U30 +Weather +,2013-04-26 18:30:00,
2013-04-26 11:35:00,55.0,49.3,29.91,SW,223,7.4,11.2,81,0.00,,,-99.99,914.0,HOBO +U30 +Weather +,2013-04-26 18:35:00,
2013-04-26 11:40:00,55.0,48.8,29.91,SW,223,6.7,12.3,79,0.00,,,-99.99,893.0,HOBO +U30 +Weather +,2013-04-26 18:40:00,
2013-04-26 11:45:00,55.6,49.4,29.91,SW,226,7.4,13.4,79,0.00,,,-99.99,608.0,HOBO +U30 +Weather +,2013-04-26 18:45:00,
2013-04-26 11:50:00,56.1,49.8,29.92,SW,234,5.6,11.9,79,0.00,,,-99.99,741.0,HOBO +U30 +Weather +,2013-04-26 18:50:00,
2013-04-26 11:55:00,56.7,49.8,29.91,SW,222,4.5,8.5,77,0.00,,,-99.99,393.0,HOBO +U30 +Weather +,2013-04-26 18:55:00,
2013-04-26 12:00:00,55.8,48.6,29.91,SW,236,4.5,9.6,76,0.00,,,-99.99,651.0,HOBO +U30 +Weather +,2013-04-26 19:00:00,
2013-04-26 12:05:00,55.9,49.1,29.91,SW,227,5.1,10.7,78,0.00,,,-99.99,601.0,HOBO +U30 +Weather +,2013-04-26 19:05:00,
2013-04-26 12:10:00,57.3,50.4,29.91,SW,225,5.1,10.7,77,0.00,,,-99.99,841.0,HOBO +U30 +Weather +,2013-04-26 19:10:00,
2013-04-26 12:15:00,55.7,49.1,29.91,WSW,256,4.5,10.7,78,0.00,,,-99.99,826.0,HOBO +U30 +Weather +,2013-04-26 19:15:00,
2013-04-26 12:20:00,58.1,51.2,29.91,WSW,243,4.0,8.5,77,0.00,,,-99.99,833.0,HOBO +U30 +Weather +,2013-04-26 19:20:00,
2013-04-26 12:25:00,57.2,49.3,29.91,SW,225,6.7,14.1,74,0.00,,,-99.99,828.0,HOBO +U30 +Weather +,2013-04-26 19:25:00,
2013-04-26 12:30:00,56.6,49.8,29.91,SW,234,6.3,10.7,77,0.00,,,-99.99,832.0,HOBO +U30 +Weather +,2013-04-26 19:30:00,
2013-04-26 12:35:00,56.5,49.4,29.91,WSW,243,5.6,11.2,77,0.00,,,-99.99,837.0,HOBO +U30 +Weather +,2013-04-26 19:35:00,
2013-04-26 12:40:00,55.5,49.1,29.90,WSW,239,6.3,13.0,79,0.00,,,-99.99,837.0,HOBO +U30 +Weather +,2013-04-26 19:40:00,
2013-04-26 12:45:00,57.4,50.7,29.90,WSW,241,5.6,10.7,78,0.00,,,-99.99,839.0,HOBO +U30 +Weather +,2013-04-26 19:45:00,
2013-04-26 12:50:00,55.7,48.9,29.90,SW,229,7.8,15.2,77,0.00,,,-99.99,839.0,HOBO +U30 +Weather +,2013-04-26 19:50:00,
2013-04-26 12:55:00,56.4,49.4,29.90,SW,229,7.8,15.2,77,0.00,,,-99.99,839.0,HOBO +U30 +Weather +,2013-04-26 19:55:00,
2013-04-26 13:00:00,56.3,49.5,29.90,SW,226,6.7,11.2,77,0.00,,,-99.99,839.0,HOBO +U30 +Weather +,2013-04-26 20:00:00,
2013-04-26 13:05:00,57.3,50.2,29.90,SW,226,6.7,11.2,77,0.00,,,-99.99,841.0,HOBO +U30 +Weather +,2013-04-26 20:05:00,
2013-04-26 13:10:00,56.2,49.2,29.90,SW,233,7.8,14.1,77,0.00,,,-99.99,839.0,HOBO +U30 +Weather +,2013-04-26 20:10:00,
2013-04-26 13:15:00,55.7,49.5,29.89,WSW,237,8.9,14.5,79,0.00,,,-99.99,834.0,HOBO +U30 +Weather +,2013-04-26 20:15:00,
2013-04-26 13:20:00,56.6,50.2,29.90,SW,233,6.7,14.1,79,0.00,,,-99.99,836.0,HOBO +U30 +Weather +,2013-04-26 20:20:00,
2013-04-26 13:25:00,56.2,49.4,29.90,SW,236,7.4,13.0,77,0.00,,,-99.99,834.0,HOBO +U30 +Weather +,2013-04-26 20:25:00,
2013-04-26 13:30:00,56.4,49.7,29.90,WSW,239,7.4,13.4,78,0.00,,,-99.99,832.0,HOBO +U30 +Weather +,2013-04-26 20:30:00,
2013-04-26 13:35:00,57.0,50.1,29.90,SW,230,6.7,13.0,77,0.00,,,-99.99,827.0,HOBO +U30 +Weather +,2013-04-26 20:35:00,
2013-04-26 13:40:00,57.3,50.2,29.89,SW,233,6.7,13.4,77,0.00,,,-99.99,827.0,HOBO +U30 +Weather +,2013-04-26 20:40:00,
2013-04-26 13:45:00,57.5,50.3,29.89,WSW,240,5.6,11.9,76,0.00,,,-99.99,823.0,HOBO +U30 +Weather +,2013-04-26 20:45:00,
2013-04-26 13:50:00,57.0,49.4,29.89,SW,233,7.4,15.9,75,0.00,,,-99.99,819.0,HOBO +U30 +Weather +,2013-04-26 20:50:00,
2013-04-26 13:55:00,55.9,49.1,29.89,SW,236,9.6,17.0,77,0.00,,,-99.99,816.0,HOBO +U30 +Weather +,2013-04-26 20:55:00,
2013-04-26 14:00:00,56.4,49.7,29.89,SW,236,8.5,15.9,78,0.00,,,-99.99,813.0,HOBO +U30 +Weather +,2013-04-26 21:00:00,
2013-04-26 14:05:00,57.0,50.2,29.89,SW,230,7.8,14.5,77,0.00,,,-99.99,804.0,HOBO +U30 +Weather +,2013-04-26 21:05:00,
2013-04-26 14:10:00,56.7,49.7,29.89,SW,234,8.5,14.5,77,0.00,,,-99.99,803.0,HOBO +U30 +Weather +,2013-04-26 21:10:00,
2013-04-26 14:15:00,55.9,49.4,29.89,SW,234,9.6,17.4,78,0.00,,,-99.99,799.0,HOBO +U30 +Weather +,2013-04-26 21:15:00,
2013-04-26 14:20:00,57.3,50.6,29.89,SW,236,7.4,14.5,78,0.00,,,-99.99,788.0,HOBO +U30 +Weather +,2013-04-26 21:20:00,
2013-04-26 14:25:00,56.4,49.4,29.89,WSW,239,9.6,17.0,77,0.00,,,-99.99,787.0,HOBO +U30 +Weather +,2013-04-26 21:25:00,
2013-04-26 14:30:00,56.3,49.5,29.89,SW,230,10.1,18.6,77,0.00,,,-99.99,782.0,HOBO +U30 +Weather +,2013-04-26 21:30:00,
2013-04-26 14:35:00,56.2,49.5,29.88,SW,234,10.7,18.1,78,0.00,,,-99.99,769.0,HOBO +U30 +Weather +,2013-04-26 21:35:00,
2013-04-26 14:40:00,56.2,49.7,29.88,SW,232,10.7,17.4,78,0.00,,,-99.99,763.0,HOBO +U30 +Weather +,2013-04-26 21:40:00,
2013-04-26 14:45:00,56.1,49.7,29.88,SW,233,10.1,17.4,79,0.00,,,-99.99,756.0,HOBO +U30 +Weather +,2013-04-26 21:45:00,
2013-04-26 14:50:00,57.1,50.4,29.88,SW,230,8.9,15.2,78,0.00,,,-99.99,747.0,HOBO +U30 +Weather +,2013-04-26 21:50:00,
2013-04-26 14:55:00,56.8,49.9,29.88,SW,232,9.6,15.9,77,0.00,,,-99.99,739.0,HOBO +U30 +Weather +,2013-04-26 21:55:00,
2013-04-26 15:00:00,55.6,49.1,29.88,WSW,237,10.7,17.4,78,0.00,,,-99.99,731.0,HOBO +U30 +Weather +,2013-04-26 22:00:00,
2013-04-26 15:05:00,56.5,49.9,29.88,SW,232,9.6,15.9,78,0.00,,,-99.99,722.0,HOBO +U30 +Weather +,2013-04-26 22:05:00,
2013-04-26 15:10:00,56.6,49.7,29.88,SW,229,8.9,17.0,77,0.00,,,-99.99,714.0,HOBO +U30 +Weather +,2013-04-26 22:10:00,
2013-04-26 15:15:00,56.9,50.0,29.88,WSW,237,8.5,15.9,77,0.00,,,-99.99,703.0,HOBO +U30 +Weather +,2013-04-26 22:15:00,
2013-04-26 15:20:00,56.0,49.4,29.88,SW,232,10.7,16.3,78,0.00,,,-99.99,694.0,HOBO +U30 +Weather +,2013-04-26 22:20:00,
2013-04-26 15:25:00,56.3,49.8,29.88,SW,236,8.9,19.7,78,0.00,,,-99.99,683.0,HOBO +U30 +Weather +,2013-04-26 22:25:00,
2013-04-26 15:30:00,56.4,50.0,29.87,SW,233,10.7,18.1,79,0.00,,,-99.99,673.0,HOBO +U30 +Weather +,2013-04-26 22:30:00,
2013-04-26 15:35:00,57.1,50.2,29.87,SW,232,8.9,15.9,77,0.00,,,-99.99,666.0,HOBO +U30 +Weather +,2013-04-26 22:35:00,
2013-04-26 15:40:00,56.3,49.5,29.87,SW,232,11.9,18.6,77,0.00,,,-99.99,656.0,HOBO +U30 +Weather +,2013-04-26 22:40:00,
2013-04-26 15:45:00,57.3,50.7,29.87,SW,232,10.1,18.1,78,0.00,,,-99.99,646.0,HOBO +U30 +Weather +,2013-04-26 22:45:00,
2013-04-26 15:50:00,56.5,49.5,29.87,SW,234,10.1,17.0,77,0.00,,,-99.99,633.0,HOBO +U30 +Weather +,2013-04-26 22:50:00,
2013-04-26 15:55:00,56.5,49.8,29.87,SW,236,8.5,16.3,78,0.00,,,-99.99,622.0,HOBO +U30 +Weather +,2013-04-26 22:55:00,
2013-04-26 16:00:00,57.1,50.4,29.87,WSW,237,9.6,19.7,78,0.00,,,-99.99,612.0,HOBO +U30 +Weather +,2013-04-26 23:00:00,
2013-04-26 16:05:00,55.5,49.0,29.87,SW,234,12.3,21.5,78,0.00,,,-99.99,601.0,HOBO +U30 +Weather +,2013-04-26 23:05:00,
2013-04-26 16:10:00,56.2,49.8,29.87,SW,236,10.7,16.3,79,0.00,,,-99.99,587.0,HOBO +U30 +Weather +,2013-04-26 23:10:00,
2013-04-26 16:15:00,56.2,49.8,29.86,SW,233,10.7,18.1,78,0.00,,,-99.99,579.0,HOBO +U30 +Weather +,2013-04-26 23:15:00,
2013-04-26 16:20:00,55.2,49.0,29.86,SW,236,11.9,20.4,79,0.00,,,-99.99,567.0,HOBO +U30 +Weather +,2013-04-26 23:20:00,
2013-04-26 16:25:00,54.9,49.2,29.86,SW,230,14.1,21.9,81,0.00,,,-99.99,551.0,HOBO +U30 +Weather +,2013-04-26 23:25:00,
2013-04-26 16:30:00,54.5,49.1,29.86,SW,232,15.2,22.6,81,0.00,,,-99.99,536.0,HOBO +U30 +Weather +,2013-04-26 23:30:00,
2013-04-26 16:35:00,55.7,50.1,29.86,SW,230,13.0,19.7,81,0.00,,,-99.99,528.0,HOBO +U30 +Weather +,2013-04-26 23:35:00,
2013-04-26 16:40:00,55.1,49.1,29.86,SW,232,11.9,19.7,80,0.00,,,-99.99,511.0,HOBO +U30 +Weather +,2013-04-26 23:40:00,
2013-04-26 16:45:00,55.0,49.7,29.86,SW,229,12.3,20.4,82,0.00,,,-99.99,498.0,HOBO +U30 +Weather +,2013-04-26 23:45:00,
2013-04-26 16:50:00,55.0,49.4,29.86,WSW,239,10.1,20.4,81,0.00,,,-99.99,483.0,HOBO +U30 +Weather +,2013-04-26 23:50:00,
2013-04-26 16:55:00,55.8,50.4,29.86,SW,227,9.6,16.3,81,0.00,,,-99.99,472.0,HOBO +U30 +Weather +,2013-04-26 23:55:00,
2013-04-26 17:00:00,55.0,49.0,29.86,WSW,239,7.4,14.1,79,0.00,,,-99.99,459.0,HOBO +U30 +Weather +,2013-04-27 00:00:00,
2013-04-26 17:05:00,56.1,49.8,29.86,SW,232,6.3,12.3,79,0.00,,,-99.99,446.0,HOBO +U30 +Weather +,2013-04-27 00:05:00,
2013-04-26 17:10:00,56.2,49.6,29.86,WSW,237,5.6,13.4,78,0.00,,,-99.99,432.0,HOBO +U30 +Weather +,2013-04-27 00:10:00,
2013-04-26 17:15:00,55.3,49.3,29.86,WSW,239,8.5,18.6,80,0.00,,,-99.99,418.0,HOBO +U30 +Weather +,2013-04-27 00:15:00,
2013-04-26 17:20:00,54.7,48.9,29.86,WSW,243,8.9,17.0,80,0.00,,,-99.99,406.0,HOBO +U30 +Weather +,2013-04-27 00:20:00,
2013-04-26 17:25:00,54.7,49.2,29.86,SW,236,8.5,18.6,81,0.00,,,-99.99,391.0,HOBO +U30 +Weather +,2013-04-27 00:25:00,
2013-04-26 17:30:00,53.7,48.3,29.85,SW,234,9.6,19.7,81,0.00,,,-99.99,376.0,HOBO +U30 +Weather +,2013-04-27 00:30:00,
2013-04-26 17:35:00,53.4,48.3,29.85,SW,232,10.7,20.4,82,0.00,,,-99.99,362.0,HOBO +U30 +Weather +,2013-04-27 00:35:00,
2013-04-26 17:40:00,53.1,48.3,29.86,SW,233,10.7,17.0,83,0.00,,,-99.99,344.0,HOBO +U30 +Weather +,2013-04-27 00:40:00,
2013-04-26 17:45:00,54.1,49.5,29.86,SW,234,7.8,15.9,84,0.00,,,-99.99,338.0,HOBO +U30 +Weather +,2013-04-27 00:45:00,
2013-04-26 17:50:00,53.2,48.6,29.86,SW,234,10.7,19.2,84,0.00,,,-99.99,323.0,HOBO +U30 +Weather +,2013-04-27 00:50:00,
2013-04-26 17:55:00,53.6,49.0,29.86,SW,229,8.9,15.9,84,0.00,,,-99.99,304.0,HOBO +U30 +Weather +,2013-04-27 00:55:00,
2013-04-26 18:00:00,53.1,48.7,29.86,SW,234,10.1,19.2,84,0.00,,,-99.99,289.0,HOBO +U30 +Weather +,2013-04-27 01:00:00,
2013-04-26 18:05:00,53.9,49.3,29.86,SW,234,7.4,13.0,84,0.00,,,-99.99,273.0,HOBO +U30 +Weather +,2013-04-27 01:05:00,
2013-04-26 18:10:00,53.2,48.4,29.86,SW,234,7.4,14.5,83,0.00,,,-99.99,147.0,HOBO +U30 +Weather +,2013-04-27 01:10:00,
2013-04-26 18:15:00,52.5,48.6,29.86,SW,232,10.7,19.2,86,0.00,,,-99.99,212.0,HOBO +U30 +Weather +,2013-04-27 01:15:00,
2013-04-26 18:20:00,52.5,48.7,29.86,SW,229,8.5,15.9,86,0.00,,,-99.99,241.0,HOBO +U30 +Weather +,2013-04-27 01:20:00,
2013-04-26 18:25:00,51.9,48.3,29.86,SW,233,11.2,18.6,87,0.00,,,-99.99,214.0,HOBO +U30 +Weather +,2013-04-27 01:25:00,
2013-04-26 18:30:00,51.7,48.4,29.86,SW,234,11.9,18.1,88,0.00,,,-99.99,208.0,HOBO +U30 +Weather +,2013-04-27 01:30:00,
2013-04-26 18:35:00,51.9,48.5,29.86,SW,236,8.9,16.3,88,0.00,,,-99.99,107.0,HOBO +U30 +Weather +,2013-04-27 01:35:00,
2013-04-26 18:40:00,51.4,48.1,29.86,SW,230,10.7,23.0,88,0.00,,,-99.99,97.0,HOBO +U30 +Weather +,2013-04-27 01:40:00,
2013-04-26 18:45:00,51.2,48.2,29.86,SW,236,9.6,19.7,89,0.00,,,-99.99,69.0,HOBO +U30 +Weather +,2013-04-27 01:45:00,
2013-04-26 18:50:00,50.8,48.0,29.86,SW,233,11.2,21.5,90,0.00,,,-99.99,92.0,HOBO +U30 +Weather +,2013-04-27 01:50:00,
2013-04-26 18:55:00,50.6,48.0,29.86,SW,234,10.1,16.3,90,0.00,,,-99.99,71.0,HOBO +U30 +Weather +,2013-04-27 01:55:00,
2013-04-26 19:00:00,50.5,48.0,29.86,SW,236,10.7,19.7,91,0.00,,,-99.99,78.0,HOBO +U30 +Weather +,2013-04-27 02:00:00,
2013-04-26 19:05:00,50.5,48.0,29.86,SW,236,8.9,19.2,91,0.00,,,-99.99,84.0,HOBO +U30 +Weather +,2013-04-27 02:05:00,
2013-04-26 19:10:00,50.4,48.0,29.86,WSW,237,8.9,18.6,91,0.00,,,-99.99,58.0,HOBO +U30 +Weather +,2013-04-27 02:10:00,
2013-04-26 19:15:00,50.5,48.1,29.86,WSW,240,5.6,14.5,91,0.00,,,-99.99,48.0,HOBO +U30 +Weather +,2013-04-27 02:15:00,
2013-04-26 19:20:00,50.4,48.1,29.86,SW,233,6.7,14.5,92,0.00,,,-99.99,43.0,HOBO +U30 +Weather +,2013-04-27 02:20:00,
2013-04-26 19:25:00,50.1,47.9,29.86,WSW,240,6.7,17.0,92,0.00,,,-99.99,32.0,HOBO +U30 +Weather +,2013-04-27 02:25:00,
2013-04-26 19:30:00,49.8,47.8,29.86,SW,232,9.6,15.2,92,0.00,,,-99.99,24.0,HOBO +U30 +Weather +,2013-04-27 02:30:00,
2013-04-26 19:35:00,49.8,47.9,29.86,SW,234,9.6,18.6,93,0.00,,,-99.99,21.0,HOBO +U30 +Weather +,2013-04-27 02:35:00,
2013-04-26 19:40:00,49.7,47.9,29.86,WSW,237,7.8,16.3,93,0.00,,,-99.99,13.0,HOBO +U30 +Weather +,2013-04-27 02:40:00,
2013-04-26 19:45:00,49.8,48.1,29.86,SW,233,7.8,14.5,93,0.00,,,-99.99,9.0,HOBO +U30 +Weather +,2013-04-27 02:45:00,
2013-04-26 19:50:00,49.7,48.1,29.86,SW,234,6.7,14.5,94,0.00,,,-99.99,6.0,HOBO +U30 +Weather +,2013-04-27 02:50:00,
2013-04-26 19:55:00,49.4,47.8,29.86,WSW,237,7.4,14.1,94,0.00,,,-99.99,3.0,HOBO +U30 +Weather +,2013-04-27 02:55:00,
2013-04-26 20:00:00,49.4,47.9,29.86,WSW,237,7.4,14.5,94,0.00,,,-99.99,1.0,HOBO +U30 +Weather +,2013-04-27 03:00:00,
2013-04-26 20:05:00,49.4,47.9,29.86,WSW,240,7.4,15.2,94,0.00,,,-99.99,1.0,HOBO +U30 +Weather +,2013-04-27 03:05:00,
2013-04-26 20:10:00,49.2,47.8,29.86,WSW,239,5.6,13.4,94,0.00,,,-99.99,1.0,HOBO +U30 +Weather +,2013-04-27 03:10:00,
2013-04-26 20:15:00,49.2,47.9,29.86,SW,230,5.6,10.7,94,0.00,,,-99.99,1.0,HOBO +U30 +Weather +,2013-04-27 03:15:00,
2013-04-26 20:20:00,49.3,48.0,29.87,SW,233,6.7,13.0,95,0.00,,,-99.99,1.0,HOBO +U30 +Weather +,2013-04-27 03:20:00,
2013-04-26 20:25:00,49.2,47.9,29.87,SW,233,6.7,12.3,95,0.00,,,-99.99,1.0,HOBO +U30 +Weather +,2013-04-27 03:25:00,
2013-04-26 20:30:00,49.2,47.9,29.87,SW,227,7.4,14.1,95,0.00,,,-99.99,1.0,HOBO +U30 +Weather +,2013-04-27 03:30:00,
2013-04-26 20:35:00,49.1,47.8,29.87,SW,229,8.5,15.2,95,0.00,,,-99.99,1.0,HOBO +U30 +Weather +,2013-04-27 03:35:00,
2013-04-26 20:40:00,49.2,47.9,29.87,SW,226,7.8,14.5,95,0.00,,,-99.99,1.0,HOBO +U30 +Weather +,2013-04-27 03:40:00,
2013-04-26 20:45:00,49.2,47.9,29.87,SW,234,7.4,13.0,95,0.00,,,-99.99,1.0,HOBO +U30 +Weather +,2013-04-27 03:45:00,
2013-04-26 20:50:00,49.1,47.8,29.88,SW,236,6.3,13.0,95,0.00,,,-99.99,1.0,HOBO +U30 +Weather +,2013-04-27 03:50:00,
2013-04-26 20:55:00,49.1,47.9,29.88,SW,232,6.3,13.4,95,0.00,,,-99.99,1.0,HOBO +U30 +Weather +,2013-04-27 03:55:00,
2013-04-26 21:00:00,49.0,47.8,29.88,SW,233,6.3,13.4,95,0.00,,,-99.99,1.0,HOBO +U30 +Weather +,2013-04-27 04:00:00,
2013-04-26 21:05:00,48.8,47.6,29.88,WSW,241,6.3,12.3,95,0.00,,,-99.99,1.0,HOBO +U30 +Weather +,2013-04-27 04:05:00,
2013-04-26 21:10:00,48.9,47.7,29.88,WSW,237,7.4,14.5,95,0.00,,,-99.99,1.0,HOBO +U30 +Weather +,2013-04-27 04:10:00,
2013-04-26 21:15:00,49.1,47.9,29.88,WSW,240,4.5,13.0,95,0.00,,,-99.99,1.0,HOBO +U30 +Weather +,2013-04-27 04:15:00,
2013-04-26 21:20:00,49.0,47.9,29.88,WSW,246,4.0,8.9,95,0.00,,,-99.99,1.0,HOBO +U30 +Weather +,2013-04-27 04:20:00,
2013-04-26 21:25:00,48.8,47.7,29.88,SW,233,6.7,15.9,95,0.00,,,-99.99,1.0,HOBO +U30 +Weather +,2013-04-27 04:25:00,
2013-04-26 21:30:00,48.8,47.9,29.88,SW,233,8.5,13.4,96,0.00,,,-99.99,1.0,HOBO +U30 +Weather +,2013-04-27 04:30:00,
2013-04-26 21:35:00,49.0,48.0,29.88,SW,227,4.5,15.9,96,0.00,,,-99.99,1.0,HOBO +U30 +Weather +,2013-04-27 04:35:00,
2013-04-26 21:40:00,48.9,47.9,29.88,SW,225,8.5,14.5,96,0.00,,,-99.99,1.0,HOBO +U30 +Weather +,2013-04-27 04:40:00,
2013-04-26 21:45:00,49.0,47.9,29.88,WSW,239,4.5,13.0,96,0.00,,,-99.99,1.0,HOBO +U30 +Weather +,2013-04-27 04:45:00,
2013-04-26 21:50:00,48.8,47.8,29.89,SW,232,5.6,13.4,95,0.00,,,-99.99,1.0,HOBO +U30 +Weather +,2013-04-27 04:50:00,
2013-04-26 21:55:00,48.7,47.6,29.89,WSW,237,5.6,10.7,95,0.00,,,-99.99,1.0,HOBO +U30 +Weather +,2013-04-27 04:55:00,
2013-04-26 22:00:00,48.5,47.5,29.90,SW,230,6.7,13.4,96,0.00,,,-99.99,1.0,HOBO +U30 +Weather +,2013-04-27 05:00:00,
2013-04-26 22:05:00,48.7,47.7,29.90,SW,233,6.3,11.9,96,0.00,,,-99.99,1.0,HOBO +U30 +Weather +,2013-04-27 05:05:00,
2013-04-26 22:10:00,48.4,47.4,29.90,SW,232,8.9,17.0,96,0.00,,,-99.99,1.0,HOBO +U30 +Weather +,2013-04-27 05:10:00,
2013-04-26 22:15:00,48.6,47.5,29.89,SW,225,7.8,13.0,96,0.00,,,-99.99,1.0,HOBO +U30 +Weather +,2013-04-27 05:15:00,
2013-04-26 22:20:00,48.8,47.7,29.90,SW,229,5.1,8.9,96,0.00,,,-99.99,1.0,HOBO +U30 +Weather +,2013-04-27 05:20:00,
2013-04-26 22:25:00,48.8,47.7,29.90,SW,234,5.6,12.3,95,0.00,,,-99.99,1.0,HOBO +U30 +Weather +,2013-04-27 05:25:00,
2013-04-26 22:30:00,48.5,47.4,29.90,WSW,237,6.3,12.3,95,0.00,,,-99.99,1.0,HOBO +U30 +Weather +,2013-04-27 05:30:00,
2013-04-26 22:35:00,48.5,47.5,29.90,WSW,237,5.1,10.7,96,0.00,,,-99.99,1.0,HOBO +U30 +Weather +,2013-04-27 05:35:00,
2013-04-26 22:40:00,48.6,47.6,29.90,SW,230,5.6,11.9,96,0.00,,,-99.99,1.0,HOBO +U30 +Weather +,2013-04-27 05:40:00,
2013-04-26 22:45:00,48.5,47.6,29.90,SW,229,6.3,11.2,96,0.00,,,-99.99,1.0,HOBO +U30 +Weather +,2013-04-27 05:45:00,
2013-04-26 22:50:00,48.6,47.6,29.90,WSW,241,4.5,8.5,96,0.00,,,-99.99,1.0,HOBO +U30 +Weather +,2013-04-27 05:50:00,
2013-04-26 22:55:00,48.6,47.7,29.90,SW,230,6.7,12.3,96,0.00,,,-99.99,1.0,HOBO +U30 +Weather +,2013-04-27 05:55:00,
2013-04-26 23:00:00,48.5,47.6,29.90,SW,234,6.3,11.9,96,0.00,,,-99.99,1.0,HOBO +U30 +Weather +,2013-04-27 06:00:00,
2013-04-26 23:05:00,48.5,47.6,29.90,SW,230,6.7,12.3,96,0.00,,,-99.99,1.0,HOBO +U30 +Weather +,2013-04-27 06:05:00,
2013-04-26 23:10:00,48.5,47.6,29.90,SW,229,5.6,10.7,96,0.00,,,-99.99,1.0,HOBO +U30 +Weather +,2013-04-27 06:10:00,
2013-04-26 23:15:00,48.4,47.4,29.90,SW,234,6.7,14.5,96,0.00,,,-99.99,1.0,HOBO +U30 +Weather +,2013-04-27 06:15:00,
2013-04-26 23:20:00,48.3,47.4,29.90,SW,230,5.6,14.5,96,0.00,,,-99.99,1.0,HOBO +U30 +Weather +,2013-04-27 06:20:00,
2013-04-26 23:25:00,48.4,47.4,29.90,SW,230,7.8,13.4,96,0.00,,,-99.99,1.0,HOBO +U30 +Weather +,2013-04-27 06:25:00,
2013-04-26 23:30:00,48.3,47.4,29.90,WSW,240,6.7,13.0,96,0.00,,,-99.99,1.0,HOBO +U30 +Weather +,2013-04-27 06:30:00,
2013-04-26 23:35:00,48.3,47.3,29.90,SW,232,6.7,13.4,96,0.00,,,-99.99,1.0,HOBO +U30 +Weather +,2013-04-27 06:35:00,
2013-04-26 23:40:00,48.3,47.3,29.90,WSW,240,6.3,14.1,96,0.00,,,-99.99,1.0,HOBO +U30 +Weather +,2013-04-27 06:40:00,
2013-04-26 23:45:00,48.3,47.4,29.90,SW,232,6.3,14.5,96,0.00,,,-99.99,1.0,HOBO +U30 +Weather +,2013-04-27 06:45:00,
2013-04-26 23:50:00,48.1,47.2,29.90,SW,234,8.5,13.4,96,0.00,,,-99.99,1.0,HOBO +U30 +Weather +,2013-04-27 06:50:00,
2013-04-26 23:55:00,48.3,47.5,29.90,SW,227,6.7,14.5,97,0.00,,,-99.99,1.0,HOBO +U30 +Weather +,2013-04-27 06:55:00,